Time;durP1;ratioP1;P1;durP2;ratioP2;P2;SDS_P1;SDS_P2;PMS_P1;PMS_P2;Temp;Humidity;BMP_temperature;BMP_pressure;BME280_temperature;BME280_humidity;BME280_pressure;Samples;Min_cycle;Max_cycle;Signal;HPM_P1;HPM_P2
2022/03/19 00:01:01;;;;;;;14.07;7.70;;;3.60;52.10;;;;;;5029031;28;20481;-76
2022/03/19 00:03:28;;;;;;;12.87;7.10;;;3.70;51.70;;;;;;5029320;28;20461;-76
2022/03/19 00:05:56;;;;;;;20.43;7.90;;;3.60;52.10;;;;;;5032631;28;21251;-76
2022/03/19 00:08:24;;;;;;;13.27;8.10;;;3.60;52.30;;;;;;5032440;28;20463;-75
2022/03/19 00:10:51;;;;;;;11.67;7.73;;;3.70;51.80;;;;;;5033088;28;20458;-76
2022/03/19 00:13:19;;;;;;;12.47;8.50;;;3.60;52.40;;;;;;5032854;28;20525;-76
2022/03/19 00:15:48;;;;;;;11.73;8.03;;;3.50;52.60;;;;;;5032729;28;20506;-76
2022/03/19 00:18:16;;;;;;;12.50;7.80;;;3.50;52.80;;;;;;5032491;28;20469;-76
2022/03/19 00:20:43;;;;;;;13.70;7.90;;;3.60;52.60;;;;;;5032792;28;20955;-77
2022/03/19 00:23:11;;;;;;;14.10;7.87;;;3.60;52.50;;;;;;5032624;28;20455;-76
2022/03/19 00:25:39;;;;;;;12.27;8.10;;;3.70;53.00;;;;;;5032211;28;20995;-76
2022/03/19 00:28:07;;;;;;;11.80;8.77;;;3.50;53.70;;;;;;5032686;28;20541;-76
2022/03/19 00:30:34;;;;;;;10.60;6.80;;;3.50;53.50;;;;;;5032906;28;20459;-76
2022/03/19 00:33:03;;;;;;;13.27;8.67;;;3.60;52.90;;;;;;5014803;28;20455;-76
2022/03/19 00:35:32;;;;;;;11.53;7.30;;;3.50;53.20;;;;;;5032446;28;20459;-76
2022/03/19 00:37:59;;;;;;;13.37;7.67;;;3.60;53.00;;;;;;5032411;28;20462;-77
2022/03/19 00:40:26;;;;;;;16.67;8.50;;;3.60;52.60;;;;;;5032205;28;20470;-76
2022/03/19 00:42:53;;;;;;;10.80;8.00;;;3.70;51.90;;;;;;5032435;28;20508;-76
2022/03/19 00:45:20;;;;;;;11.77;8.00;;;3.80;51.80;;;;;;5032271;28;20847;-76
2022/03/19 00:47:47;;;;;;;15.90;9.57;;;3.80;52.10;;;;;;5032208;28;20533;-76
2022/03/19 00:50:16;;;;;;;13.60;9.17;;;3.70;53.20;;;;;;5032197;28;20458;-77
2022/03/19 00:52:43;;;;;;;13.93;9.50;;;3.80;53.60;;;;;;5032205;28;20447;-76
2022/03/19 00:55:10;;;;;;;15.20;9.97;;;3.80;53.80;;;;;;5032082;28;20510;-76
2022/03/19 00:57:42;;;;;;;15.73;9.57;;;3.70;54.30;;;;;;5031959;28;20546;-76
2022/03/19 01:00:11;;;;;;;14.87;9.83;;;3.60;54.70;;;;;;5032068;28;20459;-76
2022/03/19 01:02:39;;;;;;;15.27;9.80;;;3.60;55.20;;;;;;5031879;28;20469;-75
2022/03/19 01:05:07;;;;;;;14.13;9.03;;;3.50;55.90;;;;;;5031327;28;20586;-75
2022/03/19 01:07:41;;;;;;;17.40;9.70;;;3.40;56.00;;;;;;5031884;28;20458;-75
2022/03/19 01:10:09;;;;;;;13.07;9.23;;;3.40;55.60;;;;;;5031725;28;20479;-76
2022/03/19 01:12:36;;;;;;;15.90;10.20;;;3.50;54.70;;;;;;5031804;28;20474;-75
2022/03/19 01:15:05;;;;;;;25.30;13.40;;;3.60;54.70;;;;;;5031287;28;20814;-76
2022/03/19 01:17:32;;;;;;;24.30;15.83;;;3.60;54.60;;;;;;5030762;28;20462;-76
2022/03/19 01:20:01;;;;;;;25.93;15.90;;;3.50;55.00;;;;;;5031819;28;20467;-77
2022/03/19 01:22:28;;;;;;;23.60;16.50;;;3.40;55.40;;;;;;5031646;28;20455;-76
2022/03/19 01:24:59;;;;;;;25.87;17.00;;;3.40;55.70;;;;;;5030818;28;20498;-76
2022/03/19 01:27:26;;;;;;;26.57;17.37;;;3.40;55.10;;;;;;5031484;28;20479;-76
2022/03/19 01:29:53;;;;;;;25.23;17.00;;;3.40;55.00;;;;;;5031037;28;20470;-75
2022/03/19 01:32:20;;;;;;;25.43;18.17;;;3.40;55.10;;;;;;5031118;28;20458;-75
2022/03/19 01:34:47;;;;;;;24.70;17.17;;;2.80;56.60;;;;;;5031392;28;20812;-75
2022/03/19 01:37:14;;;;;;;29.97;17.80;;;2.50;58.70;;;;;;5031211;28;20456;-76
2022/03/19 01:39:42;;;;;;;34.13;18.73;;;2.40;59.30;;;;;;5031222;28;20455;-76
2022/03/19 01:42:10;;;;;;;26.40;18.50;;;2.30;59.50;;;;;;5031123;28;20454;-76
2022/03/19 01:44:37;;;;;;;30.60;19.73;;;2.20;59.90;;;;;;5031272;28;20451;-76
2022/03/19 01:47:07;;;;;;;28.50;18.57;;;2.20;61.60;;;;;;5030713;28;20494;-76
2022/03/19 01:49:35;;;;;;;33.43;19.67;;;2.50;59.90;;;;;;5031053;28;20469;-76
2022/03/19 01:52:03;;;;;;;36.10;19.97;;;2.50;60.10;;;;;;5031133;28;20462;-76
2022/03/19 01:54:32;;;;;;;29.87;18.70;;;2.40;60.80;;;;;;5030761;28;20501;-75
2022/03/19 01:57:01;;;;;;;28.43;20.80;;;2.30;61.10;;;;;;5030909;28;20485;-75
2022/03/19 01:59:35;;;;;;;33.10;20.20;;;2.10;61.90;;;;;;5030643;28;20447;-76
2022/03/19 02:02:04;;;;;;;28.67;19.90;;;2.10;62.50;;;;;;5030809;28;20538;-76
2022/03/19 02:04:31;;;;;;;27.03;18.37;;;2.10;63.10;;;;;;5030740;28;20553;-75
2022/03/19 02:06:58;;;;;;;28.13;18.53;;;2.00;63.00;;;;;;5030567;28;20494;-76
2022/03/19 02:09:26;;;;;;;31.10;20.93;;;2.00;64.10;;;;;;5030716;28;20458;-76
2022/03/19 02:11:53;;;;;;;28.30;18.50;;;2.20;63.70;;;;;;5012643;28;21033;-76
2022/03/19 02:14:20;;;;;;;27.27;18.50;;;2.10;63.70;;;;;;5030416;28;20462;-76
2022/03/19 02:16:49;;;;;;;26.57;18.50;;;1.90;64.80;;;;;;5030649;28;20455;-76
2022/03/19 02:19:16;;;;;;;27.87;17.40;;;1.60;66.20;;;;;;5030504;28;20483;-76
2022/03/19 02:21:45;;;;;;;27.03;18.50;;;1.70;67.60;;;;;;5030477;28;20486;-76
2022/03/19 02:27:02;;;;;;;28.40;17.47;;;2.10;66.30;;;;;;5030182;28;20477;-75
2022/03/19 02:29:30;;;;;;;28.73;17.33;;;2.10;65.80;;;;;;5030227;28;20923;-76
2022/03/19 02:31:59;;;;;;;24.63;15.50;;;2.00;67.10;;;;;;5029802;28;20454;-76
2022/03/19 02:34:27;;;;;;;22.63;14.90;;;1.70;67.50;;;;;;5029634;28;20868;-76
2022/03/19 02:36:55;;;;;;;23.70;15.20;;;1.70;68.70;;;;;;5029909;28;20458;-76
2022/03/19 02:39:28;;;;;;;23.20;16.60;;;1.60;69.10;;;;;;5030383;28;20474;-76
2022/03/19 02:41:57;;;;;;;27.07;16.87;;;1.50;69.60;;;;;;5029735;28;20459;-76
2022/03/19 02:44:24;;;;;;;27.83;15.07;;;1.30;71.00;;;;;;5030216;28;20459;-76
2022/03/19 02:46:53;;;;;;;25.47;16.33;;;1.30;71.70;;;;;;5029611;28;20859;-76
2022/03/19 02:49:21;;;;;;;24.60;16.97;;;1.70;70.20;;;;;;5029882;28;20831;-76
2022/03/19 02:51:50;;;;;;;32.23;19.37;;;2.00;68.00;;;;;;5029891;28;20458;-76
2022/03/19 02:54:20;;;;;;;37.30;21.40;;;2.20;67.50;;;;;;5029950;28;20451;-76
2022/03/19 02:56:49;;;;;;;34.53;20.40;;;2.40;67.40;;;;;;5030285;28;20451;-76
2022/03/19 02:59:18;;;;;;;32.57;20.30;;;2.50;67.20;;;;;;5029933;28;20475;-76
2022/03/19 03:01:45;;;;;;;35.90;20.80;;;2.50;67.10;;;;;;5029711;28;20939;-76
2022/03/19 03:04:13;;;;;;;28.53;18.10;;;2.40;67.70;;;;;;5029628;28;20462;-76
2022/03/19 03:06:42;;;;;;;23.53;16.87;;;2.10;69.70;;;;;;5029599;28;20517;-76
2022/03/19 03:09:11;;;;;;;28.83;16.90;;;2.00;70.10;;;;;;5029747;28;20826;-76
2022/03/19 03:11:39;;;;;;;23.97;15.00;;;1.70;71.40;;;;;;5029951;28;20455;-75
2022/03/19 03:14:08;;;;;;;20.00;15.30;;;1.80;71.80;;;;;;5029875;28;20455;-76
2022/03/19 03:16:36;;;;;;;25.23;15.13;;;1.60;69.70;;;;;;5029858;28;20541;-76
2022/03/19 03:19:05;;;;;;;21.17;15.30;;;1.30;71.80;;;;;;5029412;28;20474;-77
2022/03/19 03:21:33;;;;;;;23.90;14.87;;;1.30;72.80;;;;;;5030031;28;20461;-77
2022/03/19 03:24:01;;;;;;;25.77;16.20;;;1.30;73.30;;;;;;5012069;28;20465;-76
2022/03/19 03:26:29;;;;;;;22.80;15.10;;;1.30;73.60;;;;;;5029390;28;20522;-76
2022/03/19 03:28:59;;;;;;;25.10;15.57;;;1.70;71.70;;;;;;5029255;28;20471;-76
2022/03/19 03:31:28;;;;;;;27.60;15.57;;;1.90;69.80;;;;;;5029471;28;20916;-76
2022/03/19 03:33:55;;;;;;;30.13;17.83;;;2.10;68.70;;;;;;5029765;28;20455;-76
2022/03/19 03:36:23;;;;;;;23.40;17.70;;;2.10;68.60;;;;;;5029668;28;20455;-76
2022/03/19 03:38:50;;;;;;;24.63;16.40;;;1.80;70.50;;;;;;5029854;28;21268;-76
2022/03/19 03:41:18;;;;;;;26.90;16.90;;;1.60;72.00;;;;;;5033491;28;20458;-75
2022/03/19 03:43:45;;;;;;;26.27;18.03;;;1.60;72.50;;;;;;5033195;28;20998;-76
2022/03/19 03:46:13;;;;;;;28.37;17.37;;;1.70;72.80;;;;;;5033320;28;20490;-76
2022/03/19 03:48:41;;;;;;;23.00;17.23;;;2.00;70.60;;;;;;5033287;28;20475;-76
2022/03/19 03:51:12;;;;;;;30.43;18.73;;;2.20;68.70;;;;;;5033314;28;20458;-76
2022/03/19 03:53:40;;;;;;;25.53;17.40;;;2.30;68.20;;;;;;5033471;28;20477;-77
2022/03/19 03:56:09;;;;;;;25.90;16.27;;;2.30;68.80;;;;;;5033265;28;20546;-76
2022/03/19 03:58:37;;;;;;;23.90;15.73;;;2.30;69.10;;;;;;5033033;28;20506;-76
2022/03/19 04:01:04;;;;;;;21.53;14.50;;;2.40;68.00;;;;;;5032920;28;21054;-76
2022/03/19 04:03:31;;;;;;;23.73;16.30;;;2.30;67.50;;;;;;5033245;28;20462;-76
2022/03/19 04:06:00;;;;;;;23.40;16.37;;;2.10;69.50;;;;;;5033078;28;20819;-76
2022/03/19 04:08:27;;;;;;;29.00;15.13;;;2.00;69.80;;;;;;5033077;28;20477;-75
2022/03/19 04:10:54;;;;;;;20.83;15.10;;;2.10;68.60;;;;;;5032650;28;20450;-76
2022/03/19 04:13:21;;;;;;;25.97;16.37;;;2.20;68.30;;;;;;5032977;28;20457;-77
2022/03/19 04:15:51;;;;;;;24.10;16.90;;;2.20;67.80;;;;;;5032987;28;20951;-75
2022/03/19 04:18:18;;;;;;;27.10;17.40;;;2.20;68.10;;;;;;5032798;28;20529;-76
2022/03/19 04:20:45;;;;;;;28.43;17.53;;;2.20;67.70;;;;;;5032858;28;20966;-77
2022/03/19 04:23:14;;;;;;;24.97;15.87;;;2.10;68.30;;;;;;5032423;28;20457;-76
2022/03/19 04:25:41;;;;;;;22.57;14.83;;;2.00;69.80;;;;;;5032195;28;21130;-75
2022/03/19 04:28:11;;;;;;;20.87;13.40;;;2.00;69.10;;;;;;5032523;28;20529;-76
2022/03/19 04:30:40;;;;;;;21.53;14.40;;;2.00;68.70;;;;;;5032366;28;20462;-76
2022/03/19 04:33:07;;;;;;;22.17;14.20;;;1.90;68.40;;;;;;5032602;28;20487;-75
2022/03/19 04:38:22;;;;;;;23.43;14.27;;;1.80;69.30;;;;;;5032393;28;20454;-75
2022/03/19 04:40:51;;;;;;;21.97;14.70;;;1.70;69.80;;;;;;5032168;28;20920;-75
2022/03/19 04:43:18;;;;;;;22.43;15.40;;;1.80;69.40;;;;;;5032415;28;20455;-76
2022/03/19 04:45:46;;;;;;;26.47;16.57;;;1.80;70.30;;;;;;5031741;28;20485;-75
2022/03/19 04:48:13;;;;;;;23.93;15.63;;;1.80;70.30;;;;;;5032070;28;20474;-76
2022/03/19 04:50:42;;;;;;;24.90;16.87;;;1.90;71.10;;;;;;5030885;28;20945;-77
2022/03/19 04:53:10;;;;;;;23.00;15.23;;;1.80;71.10;;;;;;5032332;28;20466;-76
2022/03/19 04:55:40;;;;;;;19.30;13.60;;;1.90;70.50;;;;;;5031716;28;20459;-77
2022/03/19 04:58:08;;;;;;;26.20;16.10;;;2.10;69.90;;;;;;5032129;28;20481;-74
2022/03/19 05:00:36;;;;;;;26.10;15.57;;;1.90;71.70;;;;;;5031688;28;20991;-76
2022/03/19 05:03:03;;;;;;;18.73;13.93;;;1.90;72.40;;;;;;5031742;28;21029;-76
2022/03/19 05:05:30;;;;;;;24.40;14.70;;;2.10;71.00;;;;;;5031958;28;20458;-76
2022/03/19 05:07:57;;;;;;;21.97;16.47;;;2.30;70.30;;;;;;5031590;28;21007;-75
2022/03/19 05:13:11;;;;;;;33.03;21.40;;;2.40;70.30;;;;;;5032092;28;20449;-76
2022/03/19 05:15:38;;;;;;;27.63;17.73;;;2.40;70.20;;;;;;5031796;28;20470;-76
2022/03/19 05:18:05;;;;;;;26.63;16.90;;;2.50;69.50;;;;;;5031807;28;20467;-75
2022/03/19 05:20:33;;;;;;;24.43;16.83;;;2.40;71.80;;;;;;5031569;28;20470;-75
2022/03/19 05:23:00;;;;;;;28.57;17.90;;;2.10;74.40;;;;;;5031755;28;20943;-76
2022/03/19 05:25:27;;;;;;;28.00;16.63;;;2.20;73.10;;;;;;5031101;28;20513;-78
2022/03/19 05:27:54;;;;;;;28.90;19.20;;;2.00;74.60;;;;;;5031305;28;20494;-73
2022/03/19 05:30:23;;;;;;;34.90;22.20;;;2.10;74.30;;;;;;5031605;28;20463;-73
2022/03/19 05:32:50;;;;;;;34.97;24.90;;;2.30;73.60;;;;;;5031514;28;20530;-76
2022/03/19 05:35:22;;;;;;;42.60;27.40;;;2.40;72.90;;;;;;5031384;28;20942;-72
2022/03/19 05:37:49;;;;;;;40.47;25.87;;;2.40;74.20;;;;;;5031331;28;20475;-71
2022/03/19 05:40:17;;;;;;;43.43;29.13;;;2.50;74.20;;;;;;5030919;28;20462;-72
2022/03/19 05:42:44;;;;;;;43.67;28.90;;;2.50;73.10;;;;;;5031024;28;20455;-71
2022/03/19 05:45:13;;;;;;;42.80;27.43;;;2.50;72.90;;;;;;5030804;28;20454;-70
2022/03/19 05:47:41;;;;;;;38.77;28.00;;;2.40;73.10;;;;;;5030839;28;20487;-79
2022/03/19 05:50:09;;;;;;;40.97;25.70;;;2.50;72.40;;;;;;5030696;28;20478;-73
2022/03/19 05:52:37;;;;;;;37.17;23.33;;;2.50;72.00;;;;;;5031050;28;20451;-71
2022/03/19 05:55:05;;;;;;;38.53;24.57;;;2.40;72.10;;;;;;5030919;28;20459;-75
2022/03/19 05:57:32;;;;;;;31.80;20.97;;;2.40;72.40;;;;;;5031073;28;20831;-74
2022/03/19 05:59:59;;;;;;;28.43;18.67;;;2.40;72.10;;;;;;5031031;28;20467;-73
2022/03/19 06:02:27;;;;;;;29.47;19.20;;;2.40;70.60;;;;;;5030065;28;20459;-74
2022/03/19 06:04:55;;;;;;;23.83;16.07;;;2.40;70.40;;;;;;5030849;28;20450;-71
2022/03/19 06:07:22;;;;;;;24.37;16.40;;;2.30;70.80;;;;;;5030237;28;20498;-73
2022/03/19 06:09:49;;;;;;;22.70;17.57;;;2.20;72.00;;;;;;5030659;28;20458;-72
2022/03/19 06:12:17;;;;;;;28.67;17.93;;;2.30;71.40;;;;;;5030609;28;20463;-75
2022/03/19 06:14:44;;;;;;;22.63;15.57;;;2.50;72.30;;;;;;5030356;28;20454;-72
2022/03/19 06:17:11;;;;;;;22.87;15.77;;;2.70;68.90;;;;;;5030572;28;20474;-73
2022/03/19 06:19:38;;;;;;;23.10;15.17;;;2.80;68.40;;;;;;5030642;28;20932;-71
2022/03/19 06:22:06;;;;;;;22.00;15.83;;;2.90;69.00;;;;;;5030498;28;20469;-71
2022/03/19 06:24:34;;;;;;;25.00;15.73;;;3.00;67.60;;;;;;5029791;28;20486;-71
2022/03/19 06:27:01;;;;;;;26.53;14.50;;;2.90;68.60;;;;;;5030336;28;20841;-70
2022/03/19 06:29:28;;;;;;;29.10;16.33;;;3.00;67.90;;;;;;5030449;28;20914;-74
2022/03/19 06:31:55;;;;;;;24.43;16.40;;;2.90;68.10;;;;;;5030523;28;20466;-70
2022/03/19 06:34:22;;;;;;;19.40;14.83;;;3.00;67.10;;;;;;5030472;28;20966;-71
2022/03/19 06:39:39;;;;;;;23.13;14.97;;;3.30;67.00;;;;;;5030415;28;20465;-71
2022/03/19 06:42:07;;;;;;;29.50;13.53;;;3.30;65.90;;;;;;5030285;28;20459;-71
2022/03/19 06:44:34;;;;;;;19.73;13.00;;;3.50;65.50;;;;;;5030210;28;20508;-76
2022/03/19 06:47:01;;;;;;;20.70;13.40;;;3.40;65.50;;;;;;5029940;28;20576;-69
2022/03/19 06:49:28;;;;;;;21.30;13.80;;;3.60;65.30;;;;;;5029981;28;20466;-69
2022/03/19 06:51:56;;;;;;;19.13;13.73;;;3.60;65.20;;;;;;5029711;28;20455;-74
2022/03/19 06:54:23;;;;;;;19.03;13.70;;;3.50;64.10;;;;;;5029791;28;20461;-74
2022/03/19 06:56:52;;;;;;;15.47;12.30;;;3.80;62.80;;;;;;5029965;28;20455;-74
2022/03/19 06:59:19;;;;;;;19.63;13.10;;;4.10;62.40;;;;;;5029904;28;20829;-74
2022/03/19 07:01:46;;;;;;;27.90;14.47;;;4.30;62.60;;;;;;5029407;28;20447;-75
2022/03/19 07:04:13;;;;;;;18.70;13.00;;;4.30;62.70;;;;;;5029515;28;20562;-73
2022/03/19 07:06:40;;;;;;;21.63;12.53;;;4.50;60.90;;;;;;5029858;28;20458;-72
2022/03/19 07:09:07;;;;;;;15.20;10.13;;;4.60;59.60;;;;;;5029736;28;20478;-77
2022/03/19 07:11:36;;;;;;;20.40;12.30;;;4.50;59.50;;;;;;5029778;28;20459;-78
2022/03/19 07:14:10;;;;;;;16.90;11.77;;;4.70;59.40;;;;;;5028796;28;20482;-76
2022/03/19 07:16:37;;;;;;;17.43;11.37;;;4.80;59.10;;;;;;5029920;28;20439;-75
2022/03/19 07:19:05;;;;;;;16.70;11.07;;;5.10;57.50;;;;;;5029656;28;20481;-71
2022/03/19 07:21:32;;;;;;;14.07;9.97;;;5.20;59.10;;;;;;5029753;28;20518;-71
2022/03/19 07:23:59;;;;;;;12.87;9.93;;;5.50;58.20;;;;;;5029435;28;20863;-71
2022/03/19 07:26:27;;;;;;;17.30;11.53;;;5.70;57.00;;;;;;5029035;28;20478;-73
2022/03/19 07:28:54;;;;;;;15.70;10.73;;;5.60;57.60;;;;;;5029351;28;20500;-72
2022/03/19 07:31:23;;;;;;;23.07;13.57;;;5.80;56.80;;;;;;5029403;28;20537;-74
2022/03/19 07:33:50;;;;;;;18.63;12.90;;;6.10;55.70;;;;;;5029321;28;20466;-72
2022/03/19 07:36:20;;;;;;;20.03;14.77;;;6.40;56.10;;;;;;5029351;28;20511;-81
2022/03/19 07:38:47;;;;;;;20.43;13.93;;;6.60;56.00;;;;;;5029862;28;20676;-80
2022/03/19 07:43:59;;;;;;;17.93;13.37;;;6.90;54.80;;;;;;5029251;28;20992;-69
2022/03/19 07:46:28;;;;;;;21.17;14.63;;;7.20;55.00;;;;;;5029300;28;20450;-77
2022/03/19 07:48:55;;;;;;;22.43;14.57;;;7.30;54.80;;;;;;5028834;28;20494;-80
2022/03/19 07:51:22;;;;;;;21.20;14.47;;;7.50;53.90;;;;;;5029516;28;20462;-75
2022/03/19 07:53:49;;;;;;;21.83;15.03;;;7.60;52.70;;;;;;5029520;28;20462;-75
2022/03/19 07:56:16;;;;;;;23.10;14.93;;;7.70;53.00;;;;;;5029256;28;20454;-77
2022/03/19 07:58:45;;;;;;;23.37;16.17;;;7.80;52.60;;;;;;5029250;28;20471;-73
2022/03/19 08:01:12;;;;;;;23.93;15.83;;;7.80;52.20;;;;;;5029754;28;20936;-73
2022/03/19 08:03:41;;;;;;;21.63;15.47;;;7.80;52.00;;;;;;5028877;28;20455;-73
2022/03/19 08:06:08;;;;;;;22.13;17.03;;;8.00;52.40;;;;;;5029279;28;20813;-74
2022/03/19 08:08:36;;;;;;;21.90;17.47;;;8.10;53.00;;;;;;5028696;28;20999;-74
2022/03/19 08:11:03;;;;;;;23.50;18.10;;;8.10;53.10;;;;;;5029363;28;21003;-80
2022/03/19 08:13:30;;;;;;;27.00;16.90;;;8.20;53.50;;;;;;5029125;28;20509;-70
2022/03/19 08:15:57;;;;;;;22.60;16.50;;;8.30;51.80;;;;;;5029227;28;20975;-75
2022/03/19 08:18:25;;;;;;;22.57;15.70;;;8.30;50.40;;;;;;5029100;28;20936;-73
2022/03/19 08:20:53;;;;;;;24.73;17.83;;;8.20;49.50;;;;;;5029093;28;20451;-73
2022/03/19 08:23:20;;;;;;;22.03;16.50;;;8.10;49.60;;;;;;5028879;28;20455;-73
2022/03/19 08:25:47;;;;;;;20.50;12.73;;;8.10;49.70;;;;;;5030195;28;20482;-72
2022/03/19 08:28:15;;;;;;;22.70;15.63;;;8.20;48.50;;;;;;5032468;28;20490;-71
2022/03/19 08:30:42;;;;;;;22.60;15.97;;;8.50;47.70;;;;;;5032747;28;20455;-70
2022/03/19 08:33:09;;;;;;;19.80;13.40;;;8.50;47.80;;;;;;5032541;28;20458;-75
2022/03/19 08:35:36;;;;;;;21.97;14.70;;;8.60;47.20;;;;;;5032356;28;20462;-75
2022/03/19 08:40:49;;;;;;;17.63;11.60;;;9.00;47.60;;;;;;5032425;28;20442;-73
2022/03/19 08:43:16;;;;;;;13.03;11.10;;;9.30;45.90;;;;;;5032350;28;20788;-71
2022/03/19 08:45:43;;;;;;;15.03;11.50;;;9.60;44.80;;;;;;5031917;28;20549;-71
2022/03/19 08:48:10;;;;;;;15.50;11.20;;;9.60;44.50;;;;;;5031805;28;20544;-70
2022/03/19 08:50:38;;;;;;;15.30;11.07;;;9.70;44.40;;;;;;5032288;28;20542;-74
2022/03/19 08:53:06;;;;;;;19.00;14.80;;;9.80;42.80;;;;;;5032048;28;20454;-75
2022/03/19 08:55:33;;;;;;;17.17;12.40;;;9.60;42.20;;;;;;5032117;28;20454;-73
2022/03/19 08:58:00;;;;;;;18.00;12.60;;;9.60;43.10;;;;;;5032019;28;20467;-76
2022/03/19 09:00:27;;;;;;;20.50;12.70;;;9.70;43.40;;;;;;5031628;28;20458;-76
2022/03/19 09:02:56;;;;;;;13.70;10.57;;;9.80;43.20;;;;;;5031838;28;20842;-75
2022/03/19 09:05:23;;;;;;;14.47;10.27;;;9.90;43.50;;;;;;5031991;28;20459;-74
2022/03/19 09:07:50;;;;;;;13.63;9.50;;;10.00;42.10;;;;;;5031619;28;20853;-75
2022/03/19 09:10:19;;;;;;;14.50;9.27;;;10.10;41.40;;;;;;5031826;28;20927;-75
2022/03/19 09:12:46;;;;;;;13.23;9.87;;;10.30;40.80;;;;;;5031844;28;20836;-75
2022/03/19 09:15:14;;;;;;;20.87;10.47;;;10.40;40.10;;;;;;5031415;28;20494;-76
2022/03/19 09:17:41;;;;;;;13.40;8.87;;;10.40;39.60;;;;;;5031542;28;20477;-74
2022/03/19 09:20:11;;;;;;;17.10;9.27;;;10.30;39.30;;;;;;5031665;28;20466;-71
2022/03/19 09:22:38;;;;;;;12.70;9.33;;;10.40;39.30;;;;;;5031790;28;20450;-70
2022/03/19 09:25:06;;;;;;;12.73;9.17;;;10.40;39.80;;;;;;5031229;28;20522;-72
2022/03/19 09:27:39;;;;;;;16.43;9.80;;;10.60;39.60;;;;;;5031025;28;20799;-73
2022/03/19 09:30:08;;;;;;;11.87;9.67;;;10.40;39.40;;;;;;5031417;28;20454;-74
2022/03/19 09:32:36;;;;;;;15.63;10.07;;;10.20;39.40;;;;;;5031476;28;20459;-72
2022/03/19 09:35:03;;;;;;;13.60;9.93;;;10.20;40.70;;;;;;5031228;28;21076;-74
2022/03/19 09:37:31;;;;;;;17.13;9.73;;;10.20;39.70;;;;;;5030419;28;20516;-75
2022/03/19 09:39:59;;;;;;;16.23;10.10;;;10.10;39.80;;;;;;5030704;28;20463;-73
2022/03/19 09:42:27;;;;;;;13.33;9.63;;;10.00;40.30;;;;;;5030562;28;20936;-69
2022/03/19 09:44:56;;;;;;;12.33;9.13;;;9.90;41.20;;;;;;5030787;28;20947;-71
2022/03/19 09:47:25;;;;;;;12.33;9.03;;;9.60;40.30;;;;;;5030731;28;20983;-70
2022/03/19 09:49:52;;;;;;;12.43;9.30;;;9.60;42.20;;;;;;5030846;28;20517;-70
2022/03/19 09:52:21;;;;;;;14.03;9.73;;;10.00;40.80;;;;;;5030819;28;20458;-73
2022/03/19 09:54:48;;;;;;;12.20;9.47;;;9.70;41.80;;;;;;5013197;28;20460;-73
2022/03/19 09:57:15;;;;;;;11.37;8.73;;;9.70;41.90;;;;;;5030360;28;20910;-72
2022/03/19 09:59:42;;;;;;;12.83;8.73;;;9.70;42.40;;;;;;5030330;28;20463;-76
2022/03/19 10:02:11;;;;;;;13.93;9.97;;;9.80;42.90;;;;;;5030585;28;20546;-75
2022/03/19 10:04:43;;;;;;;13.60;9.90;;;10.00;42.10;;;;;;5030261;28;20459;-73
2022/03/19 10:09:57;;;;;;;13.57;10.50;;;9.20;41.00;;;;;;5030756;28;20429;-74
2022/03/19 10:12:29;;;;;;;13.60;9.67;;;9.20;42.30;;;;;;5030645;28;20462;-71
2022/03/19 10:14:57;;;;;;;18.23;10.97;;;9.00;42.40;;;;;;5032015;28;20528;-71
2022/03/19 10:17:33;;;;;;;13.13;9.40;;;9.20;42.50;;;;;;5030849;28;20481;-73
2022/03/19 10:20:03;;;;;;;13.43;9.87;;;9.30;42.00;;;;;;5031925;28;20457;-71
2022/03/19 10:22:31;;;;;;;16.47;9.30;;;9.60;41.80;;;;;;5030554;28;20446;-76
2022/03/19 10:25:01;;;;;;;13.67;8.50;;;9.70;40.80;;;;;;5029799;28;20491;-72
2022/03/19 10:27:32;;;;;;;12.47;8.47;;;10.00;40.30;;;;;;5030166;28;21074;-70
2022/03/19 10:30:09;;;;;;;12.30;8.70;;;10.20;40.30;;;;;;5030381;28;20463;-77
2022/03/19 10:32:40;;;;;;;12.17;7.90;;;10.70;40.20;;;;;;5030327;28;20487;-78
2022/03/19 10:35:25;;;;;;;11.87;8.73;;;11.10;40.60;;;;;;5030035;28;20528;-68
2022/03/19 10:37:53;;;;;;;12.87;9.93;;;11.50;39.00;;;;;;5029884;28;20887;-71
2022/03/19 10:40:20;;;;;;;12.03;8.20;;;11.90;38.20;;;;;;5030100;28;20462;-76
2022/03/19 10:42:48;;;;;;;10.80;7.57;;;12.10;37.70;;;;;;5029685;28;20946;-72
2022/03/19 10:45:22;;;;;;;10.13;8.43;;;12.00;37.30;;;;;;5029776;28;20940;-70
2022/03/19 10:47:51;;;;;;;12.43;7.93;;;12.10;37.30;;;;;;5029795;28;20541;-74
2022/03/19 10:50:23;;;;;;;12.33;9.00;;;12.10;37.40;;;;;;5029974;28;20450;-70
2022/03/19 10:52:53;;;;;;;10.27;7.03;;;12.20;37.00;;;;;;5029955;28;20455;-72
2022/03/19 10:55:20;;;;;;;8.50;6.97;;;12.30;36.60;;;;;;5029614;28;20804;-71
2022/03/19 10:57:48;;;;;;;13.10;9.27;;;12.40;36.90;;;;;;5029547;28;20470;-69
2022/03/19 11:00:16;;;;;;;10.80;7.87;;;12.50;36.30;;;;;;5029816;28;20454;-72
2022/03/19 11:02:45;;;;;;;10.87;7.90;;;12.60;35.90;;;;;;5029637;28;20466;-72
2022/03/19 11:05:18;;;;;;;10.63;7.70;;;12.70;36.50;;;;;;5029671;28;20486;-71
2022/03/19 11:07:46;;;;;;;12.10;8.30;;;12.80;36.40;;;;;;5011286;28;20467;-70
2022/03/19 11:10:15;;;;;;;11.80;7.60;;;12.80;36.10;;;;;;5029468;28;20450;-77
2022/03/19 11:12:50;;;;;;;9.40;7.07;;;12.80;35.90;;;;;;5029638;28;20459;-69
2022/03/19 11:15:19;;;;;;;10.47;7.40;;;12.80;35.70;;;;;;5029691;28;20553;-77
2022/03/19 11:17:48;;;;;;;7.80;6.63;;;13.00;35.20;;;;;;5029524;28;21051;-73
2022/03/19 11:20:17;;;;;;;9.93;7.77;;;13.00;35.40;;;;;;5029233;28;20447;-71
2022/03/19 11:22:46;;;;;;;11.47;8.43;;;12.90;35.00;;;;;;5029284;28;20451;-74
2022/03/19 11:25:20;;;;;;;10.90;8.73;;;12.90;35.30;;;;;;5029037;28;20582;-71
2022/03/19 11:27:49;;;;;;;9.93;7.80;;;12.80;35.70;;;;;;5029179;28;20489;-71
2022/03/19 11:30:22;;;;;;;12.03;7.57;;;13.00;36.80;;;;;;5029386;28;20462;-71
2022/03/19 11:33:08;;;;;;;11.27;7.53;;;13.30;35.90;;;;;;5028896;28;21553;-71
2022/03/19 11:35:39;;;;;;;13.43;8.40;;;13.50;35.60;;;;;;5029407;28;20467;-69
2022/03/19 11:38:11;;;;;;;12.77;8.60;;;13.80;35.20;;;;;;5029196;28;20537;-71
2022/03/19 11:40:42;;;;;;;11.20;8.60;;;14.00;36.50;;;;;;5029375;28;20478;-72
2022/03/19 11:43:10;;;;;;;10.83;8.87;;;14.00;35.40;;;;;;5029240;28;20502;-73
2022/03/19 11:45:51;;;;;;;10.70;7.40;;;13.70;35.50;;;;;;5029058;28;20888;-70
2022/03/19 11:48:42;;;;;;;9.97;7.70;;;13.50;35.60;;;;;;5029139;28;20490;-69
2022/03/19 11:51:36;;;;;;;10.90;7.67;;;13.70;35.30;;;;;;5029273;28;20826;-70
2022/03/19 11:54:05;;;;;;;11.57;8.67;;;13.70;35.70;;;;;;5029070;28;21038;-72
2022/03/19 11:57:07;;;;;;;10.63;7.93;;;13.70;35.80;;;;;;5029099;28;20459;-71
2022/03/19 11:59:48;;;;;;;11.17;7.97;;;13.20;35.50;;;;;;5029317;28;20456;-70
2022/03/19 12:02:15;;;;;;;10.90;8.67;;;12.60;36.00;;;;;;5032626;28;20489;-71
2022/03/19 12:04:47;;;;;;;11.40;8.67;;;12.10;37.00;;;;;;5032761;28;20482;-74
2022/03/19 12:07:39;;;;;;;12.33;9.13;;;11.70;37.00;;;;;;5032763;28;20810;-70
2022/03/19 12:10:10;;;;;;;11.20;8.73;;;11.40;37.40;;;;;;5032591;28;20522;-74
2022/03/19 12:12:39;;;;;;;11.80;7.40;;;11.50;37.60;;;;;;5032761;28;20817;-74
2022/03/19 12:15:43;;;;;;;13.50;7.80;;;11.60;38.70;;;;;;5032754;28;20505;-75
2022/03/19 12:18:27;;;;;;;9.70;7.70;;;11.90;37.40;;;;;;5032673;28;20480;-73
2022/03/19 12:20:56;;;;;;;12.13;8.20;;;12.10;37.10;;;;;;5032577;28;20454;-70
2022/03/19 12:23:26;;;;;;;11.63;7.13;;;12.40;37.20;;;;;;5032666;28;20454;-76
2022/03/19 12:26:01;;;;;;;8.70;6.67;;;12.80;36.80;;;;;;5032491;28;20514;-77
2022/03/19 12:28:28;;;;;;;11.90;8.50;;;13.00;36.80;;;;;;5032380;28;20613;-73
2022/03/19 12:30:55;;;;;;;9.83;7.13;;;13.00;36.70;;;;;;5032326;28;20807;-74
2022/03/19 12:33:31;;;;;;;10.70;7.20;;;13.10;36.30;;;;;;5032343;28;20451;-75
2022/03/19 12:35:59;;;;;;;15.80;7.63;;;12.80;35.60;;;;;;5032473;28;20520;-75
2022/03/19 12:38:32;;;;;;;11.30;8.93;;;12.70;35.90;;;;;;5032325;28;20506;-73
2022/03/19 12:43:44;;;;;;;10.47;7.97;;;12.60;36.20;;;;;;5032354;28;20837;-72
2022/03/19 12:46:12;;;;;;;11.40;7.77;;;12.50;38.00;;;;;;5032173;28;20455;-73
2022/03/19 12:48:40;;;;;;;10.53;8.23;;;12.90;38.10;;;;;;5032079;28;20490;-71
2022/03/19 12:51:07;;;;;;;11.20;8.00;;;13.20;36.40;;;;;;5032164;28;20463;-73
2022/03/19 12:53:38;;;;;;;12.30;8.40;;;13.50;37.70;;;;;;5031657;28;20458;-75
2022/03/19 12:56:13;;;;;;;10.97;7.57;;;13.80;36.80;;;;;;5032049;28;20459;-73
2022/03/19 12:58:42;;;;;;;11.20;7.50;;;14.30;36.40;;;;;;5032041;28;20475;-79
2022/03/19 13:01:12;;;;;;;9.40;6.57;;;14.50;35.30;;;;;;5031808;28;20459;-79
2022/03/19 13:03:41;;;;;;;9.63;7.33;;;14.70;35.00;;;;;;5032058;28;20465;-77
2022/03/19 13:06:08;;;;;;;9.03;6.40;;;15.10;34.00;;;;;;5032287;28;20466;-75
2022/03/19 13:08:50;;;;;;;10.97;8.30;;;15.20;34.10;;;;;;5031623;28;20490;-76